Hovedside
METAR-TAF:

METAR-TAF

Lufthavner :

La Palma lufthavn

La Palma, Spania

breddegrad: 28-37N, lengdegrad: 017-45W, høyde over havet: 29 m

Gjeldene værobservasjon

Denne rapporten ble laget for 27 minutter siden, klokken 21:00 UTC
Vind 9 kt fra Nord
Temperatur 22°C
Luftfuktighet 73%
Trykk 1018 hPa
Sikt 10 km eller mer
ingen skyer under 1500 m og ingen bygeskyer

METAR: GCLA 122100Z 01009KT CAVOK 22/17 Q1018

Tid: 22:27 (21:27 UTC)

Varsel

Denne rapporten ble laget for 1 time og 27 minutter siden, klokken 20:00 UTC
Varsel gyldig fra 12. klokken 21 UTC til 13. klokken 21 UTC
Vind 5 kt fra Nord-nordvest
Sikt: 9000 m

TAF: GCLA 122000Z 1221/1321 34005KT 9000 NSC TX27/1314Z TN22/1306Z

Værobservasjoner og værvarsel for over 4000 flyplasser (METAR- og TAF-rapporter).

Tilgjengelige stasjoner er representert av de røde og gule prikkene på kartet.

Hold musepekeren over prikken for å se navnet på stasjonen.

Klikk så for å se værobservasjoner og -varsler.

For å forandre kartet kan du klikke på den grønne knappen med svart kryss for å zoome inn, på den grønne knappen med strek for å zoome ut, eller på de grønne pilene for å se tilstøtende kart.


METAR-TAF: